Aérodrome :
LOGIN :

S'inscrire | Disclaimer

   EN    FR    IT 

 










Légende :    VFR   VFR Marginal   IFR   IFR Intensif   IFR Très Intensif
Visi : 
Plafond : 
>= 8 km
>= 3000ft
5 à 8 km
1000 à 3000 ft
1500m à 5 km
500 à 1000 ft
800 à 1500m
200 à 500 ft
< 800m
< 200 ft
Symboles :   Orages  Brouillard  Fortes neiges  Fortes précipitations  Vent > 20 kt
SIGMETs :   Divers  Orages  Givrage  Turbulence  Onde Orograph.  Cendres Volcan.







- Altitude de l'aérodrome : 352 ft
- Code IATA : ARW


LRAR - Arad International

DERNIER METAR :
  • 140630Z 16010KT CAVOK 26/14 Q1012

METARs EXPIRÉS :
  • 140600Z 15009KT CAVOK 25/15 Q1012
  • 140530Z 14009KT CAVOK 23/16 Q1012
  • 140500Z 14008KT CAVOK 22/16 Q1012
  • 140430Z 14008KT CAVOK 20/16 Q1012
  • 140400Z 14009KT CAVOK 20/15 Q1012

TAF TAF LRAR
Valide du 14 à 06h jusqu'au 14 à 15h UTC


140500Z 1406/1415 14008KT CAVOK
BECMG 1408/1410 20012KT
Pas de NOTAMs connus pour ce terrain.



MET'MAP, la Météo Aéronautique d'un coup d'oeil ! - Copyright ORBIFLY Décembre 2007 - Disclaimer

ORBIFLY MET'MAP TEAM :

Programmation & Développement : Alexandra Zaïnal
Conception & Développement : Baudouin d'Aumeries
Co-Programmation & Développement : Marc-Olivier Méhu
Soutien technique & logistique : Manuel Goepfert

Contact : metmap@orbifly.com




SOURCES & CREDITS :

   NOAA